<?xml version="1.0" encoding="UTF-8" standalone="no" ?>
<gpx xmlns="http://www.topografix.com/GPX/1/1" xmlns:xsi="http://www.w3.org/2001/XMLSchema-instance" xsi:schemaLocation="http://www.topografix.com/GPX/1/1 http://www.topografix.com/GPX/1/1/gpx.xsd" version="1.1" creator="VisuGPX - https://www.visugpx.com">
  <metadata>
    <name>secteur Saverne - Dabo - Petite Pierre</name>
  </metadata>
  <trk>
    <name><![CDATA[secteur Saverne - Dabo - Petite Pierre_33]]></name>
    <trkseg>
      <trkpt lat="48.75145" lon="7.33249">
        <ele>384.8</ele>
        <time>2020-05-22T11:09:51Z</time>
      </trkpt>
      <trkpt lat="48.75145" lon="7.33249">
        <ele>384.8</ele>
        <time>2020-05-22T11:09:51Z</time>
      </trkpt>
      <trkpt lat="48.75145" lon="7.33249">
        <ele>384.8</ele>
        <time>2020-05-22T11:09:51Z</time>
      </trkpt>
      <trkpt lat="48.75145" lon="7.33249">
        <ele>384.8</ele>
        <time>2020-05-22T11:09:51Z</time>
      </trkpt>
      <trkpt lat="48.75145" lon="7.33249">
        <ele>384.8</ele>
        <time>2020-05-22T11:09:51Z</time>
      </trkpt>
      <trkpt lat="48.75145" lon="7.33249">
        <ele>384.8</ele>
        <time>2020-05-22T11:09:51Z</time>
      </trkpt>
      <trkpt lat="48.75143" lon="7.33244">
        <ele>384.9</ele>
        <time>2020-05-22T11:09:52Z</time>
      </trkpt>
      <trkpt lat="48.7514" lon="7.33238">
        <ele>384.9</ele>
        <time>2020-05-22T11:09:54Z</time>
      </trkpt>
      <trkpt lat="48.75138" lon="7.33237">
        <ele>384.8</ele>
        <time>2020-05-22T11:09:55Z</time>
      </trkpt>
      <trkpt lat="48.75136" lon="7.33238">
        <ele>384.8</ele>
        <time>2020-05-22T11:09:56Z</time>
      </trkpt>
      <trkpt lat="48.75134" lon="7.33238">
        <ele>384.6</ele>
        <time>2020-05-22T11:09:58Z</time>
      </trkpt>
      <trkpt lat="48.7513" lon="7.33234">
        <ele>384.4</ele>
        <time>2020-05-22T11:10:00Z</time>
      </trkpt>
      <trkpt lat="48.75128" lon="7.33231">
        <ele>384.3</ele>
        <time>2020-05-22T11:10:01Z</time>
      </trkpt>
      <trkpt lat="48.75122" lon="7.33222">
        <ele>383.8</ele>
        <time>2020-05-22T11:10:03Z</time>
      </trkpt>
      <trkpt lat="48.75119" lon="7.33217">
        <ele>383.5</ele>
        <time>2020-05-22T11:10:04Z</time>
      </trkpt>
      <trkpt lat="48.75109" lon="7.33207">
        <ele>382.9</ele>
        <time>2020-05-22T11:10:06Z</time>
      </trkpt>
      <trkpt lat="48.75101" lon="7.33197">
        <ele>382.5</ele>
        <time>2020-05-22T11:10:08Z</time>
      </trkpt>
      <trkpt lat="48.75095" lon="7.33186">
        <ele>382.2</ele>
        <time>2020-05-22T11:10:10Z</time>
      </trkpt>
      <trkpt lat="48.7509" lon="7.33177">
        <ele>382</ele>
        <time>2020-05-22T11:10:12Z</time>
      </trkpt>
      <trkpt lat="48.75085" lon="7.33173">
        <ele>381.8</ele>
        <time>2020-05-22T11:10:13Z</time>
      </trkpt>
      <trkpt lat="48.75078" lon="7.33164">
        <ele>381.7</ele>
        <time>2020-05-22T11:10:15Z</time>
      </trkpt>
      <trkpt lat="48.75075" lon="7.33161">
        <ele>381.7</ele>
        <time>2020-05-22T11:10:16Z</time>
      </trkpt>
      <trkpt lat="48.75068" lon="7.33155">
        <ele>381.8</ele>
        <time>2020-05-22T11:10:18Z</time>
      </trkpt>
      <trkpt lat="48.75065" lon="7.33152">
        <ele>381.8</ele>
        <time>2020-05-22T11:10:19Z</time>
      </trkpt>
      <trkpt lat="48.7506" lon="7.33149">
        <ele>381.9</ele>
        <time>2020-05-22T11:10:21Z</time>
      </trkpt>
      <trkpt lat="48.75057" lon="7.33147">
        <ele>382</ele>
        <time>2020-05-22T11:10:22Z</time>
      </trkpt>
      <trkpt lat="48.75053" lon="7.33146">
        <ele>382.1</ele>
        <time>2020-05-22T11:10:24Z</time>
      </trkpt>
      <trkpt lat="48.75051" lon="7.33144">
        <ele>382.1</ele>
        <time>2020-05-22T11:10:25Z</time>
      </trkpt>
      <trkpt lat="48.75046" lon="7.33142">
        <ele>382.3</ele>
        <time>2020-05-22T11:10:27Z</time>
      </trkpt>
      <trkpt lat="48.75042" lon="7.3314">
        <ele>382.4</ele>
        <time>2020-05-22T11:10:28Z</time>
      </trkpt>
      <trkpt lat="48.75036" lon="7.33134">
        <ele>382.5</ele>
        <time>2020-05-22T11:10:30Z</time>
      </trkpt>
      <trkpt lat="48.75033" lon="7.33131">
        <ele>382.6</ele>
        <time>2020-05-22T11:10:31Z</time>
      </trkpt>
      <trkpt lat="48.75028" lon="7.33127">
        <ele>382.7</ele>
        <time>2020-05-22T11:10:33Z</time>
      </trkpt>
      <trkpt lat="48.7502" lon="7.33123">
        <ele>382.6</ele>
        <time>2020-05-22T11:10:35Z</time>
      </trkpt>
      <trkpt lat="48.7501" lon="7.33122">
        <ele>382.1</ele>
        <time>2020-05-22T11:10:37Z</time>
      </trkpt>
      <trkpt lat="48.74998" lon="7.33123">
        <ele>381.1</ele>
        <time>2020-05-22T11:10:39Z</time>
      </trkpt>
      <trkpt lat="48.74987" lon="7.33133">
        <ele>379.6</ele>
        <time>2020-05-22T11:10:41Z</time>
      </trkpt>
      <trkpt lat="48.74983" lon="7.33145">
        <ele>378.5</ele>
        <time>2020-05-22T11:10:43Z</time>
      </trkpt>
      <trkpt lat="48.7498" lon="7.33158">
        <ele>377.5</ele>
        <time>2020-05-22T11:10:45Z</time>
      </trkpt>
      <trkpt lat="48.74978" lon="7.33163">
        <ele>377</ele>
        <time>2020-05-22T11:10:46Z</time>
      </trkpt>
      <trkpt lat="48.74973" lon="7.33177">
        <ele>375.8</ele>
        <time>2020-05-22T11:10:48Z</time>
      </trkpt>
      <trkpt lat="48.74967" lon="7.33182">
        <ele>375.1</ele>
        <time>2020-05-22T11:10:49Z</time>
      </trkpt>
      <trkpt lat="48.74963" lon="7.3319">
        <ele>374.3</ele>
        <time>2020-05-22T11:10:50Z</time>
      </trkpt>
      <trkpt lat="48.74958" lon="7.33196">
        <ele>373.7</ele>
        <time>2020-05-22T11:10:51Z</time>
      </trkpt>
      <trkpt lat="48.74951" lon="7.33209">
        <ele>373</ele>
        <time>2020-05-22T11:10:53Z</time>
      </trkpt>
      <trkpt lat="48.74946" lon="7.33217">
        <ele>372.8</ele>
        <time>2020-05-22T11:10:55Z</time>
      </trkpt>
      <trkpt lat="48.74941" lon="7.33222">
        <ele>372.8</ele>
        <time>2020-05-22T11:10:57Z</time>
      </trkpt>
      <trkpt lat="48.74938" lon="7.33224">
        <ele>372.9</ele>
        <time>2020-05-22T11:10:58Z</time>
      </trkpt>
      <trkpt lat="48.74929" lon="7.33228">
        <ele>373.2</ele>
        <time>2020-05-22T11:11:00Z</time>
      </trkpt>
      <trkpt lat="48.74925" lon="7.3323">
        <ele>373.5</ele>
        <time>2020-05-22T11:11:01Z</time>
      </trkpt>
      <trkpt lat="48.74919" lon="7.33233">
        <ele>374</ele>
        <time>2020-05-22T11:11:03Z</time>
      </trkpt>
      <trkpt lat="48.74918" lon="7.33232">
        <ele>374.1</ele>
        <time>2020-05-22T11:11:05Z</time>
      </trkpt>
      <trkpt lat="48.74917" lon="7.33233">
        <ele>374.2</ele>
        <time>2020-05-22T11:11:06Z</time>
      </trkpt>
      <trkpt lat="48.74916" lon="7.33234">
        <ele>374.3</ele>
        <time>2020-05-22T11:11:08Z</time>
      </trkpt>
      <trkpt lat="48.74915" lon="7.33235">
        <ele>374.4</ele>
        <time>2020-05-22T11:11:10Z</time>
      </trkpt>
      <trkpt lat="48.74915" lon="7.33236">
        <ele>374.5</ele>
        <time>2020-05-22T11:11:11Z</time>
      </trkpt>
      <trkpt lat="48.74914" lon="7.33236">
        <ele>374.6</ele>
        <time>2020-05-22T11:11:13Z</time>
      </trkpt>
      <trkpt lat="48.74914" lon="7.33235">
        <ele>374.6</ele>
        <time>2020-05-22T11:11:14Z</time>
      </trkpt>
      <trkpt lat="48.74913" lon="7.33235">
        <ele>374.7</ele>
        <time>2020-05-22T11:11:15Z</time>
      </trkpt>
      <trkpt lat="48.74912" lon="7.33235">
        <ele>374.7</ele>
        <time>2020-05-22T11:11:17Z</time>
      </trkpt>
      <trkpt lat="48.74912" lon="7.33236">
        <ele>374.8</ele>
        <time>2020-05-22T11:11:19Z</time>
      </trkpt>
      <trkpt lat="48.74911" lon="7.33236">
        <ele>374.9</ele>
        <time>2020-05-22T11:11:20Z</time>
      </trkpt>
      <trkpt lat="48.74909" lon="7.33239">
        <ele>375.1</ele>
        <time>2020-05-22T11:11:22Z</time>
      </trkpt>
      <trkpt lat="48.74908" lon="7.3324">
        <ele>375.3</ele>
        <time>2020-05-22T11:11:23Z</time>
      </trkpt>
      <trkpt lat="48.74906" lon="7.3324">
        <ele>375.5</ele>
        <time>2020-05-22T11:11:25Z</time>
      </trkpt>
      <trkpt lat="48.74905" lon="7.33241">
        <ele>375.6</ele>
        <time>2020-05-22T11:11:26Z</time>
      </trkpt>
      <trkpt lat="48.74904" lon="7.3324">
        <ele>375.6</ele>
        <time>2020-05-22T11:11:27Z</time>
      </trkpt>
      <trkpt lat="48.74901" lon="7.33241">
        <ele>375.9</ele>
        <time>2020-05-22T11:11:29Z</time>
      </trkpt>
      <trkpt lat="48.74898" lon="7.33242">
        <ele>376.1</ele>
        <time>2020-05-22T11:11:31Z</time>
      </trkpt>
      <trkpt lat="48.74895" lon="7.33243">
        <ele>376.3</ele>
        <time>2020-05-22T11:11:33Z</time>
      </trkpt>
      <trkpt lat="48.74893" lon="7.33244">
        <ele>376.4</ele>
        <time>2020-05-22T11:11:34Z</time>
      </trkpt>
      <trkpt lat="48.74889" lon="7.33246">
        <ele>376.6</ele>
        <time>2020-05-22T11:11:36Z</time>
      </trkpt>
      <trkpt lat="48.74887" lon="7.33246">
        <ele>376.7</ele>
        <time>2020-05-22T11:11:37Z</time>
      </trkpt>
      <trkpt lat="48.74883" lon="7.3325">
        <ele>376.8</ele>
        <time>2020-05-22T11:11:39Z</time>
      </trkpt>
      <trkpt lat="48.74879" lon="7.33251">
        <ele>376.9</ele>
        <time>2020-05-22T11:11:41Z</time>
      </trkpt>
      <trkpt lat="48.74878" lon="7.33251">
        <ele>376.9</ele>
        <time>2020-05-22T11:11:43Z</time>
      </trkpt>
      <trkpt lat="48.74877" lon="7.33252">
        <ele>376.9</ele>
        <time>2020-05-22T11:11:44Z</time>
      </trkpt>
      <trkpt lat="48.74874" lon="7.33252">
        <ele>376.9</ele>
        <time>2020-05-22T11:11:46Z</time>
      </trkpt>
      <trkpt lat="48.74873" lon="7.33252">
        <ele>376.9</ele>
        <time>2020-05-22T11:11:47Z</time>
      </trkpt>
      <trkpt lat="48.74873" lon="7.33253">
        <ele>376.8</ele>
        <time>2020-05-22T11:11:49Z</time>
      </trkpt>
      <trkpt lat="48.74873" lon="7.33254">
        <ele>376.8</ele>
        <time>2020-05-22T11:11:50Z</time>
      </trkpt>
      <trkpt lat="48.74871" lon="7.33257">
        <ele>376.7</ele>
        <time>2020-05-22T11:11:52Z</time>
      </trkpt>
      <trkpt lat="48.74871" lon="7.33258">
        <ele>376.7</ele>
        <time>2020-05-22T11:11:53Z</time>
      </trkpt>
      <trkpt lat="48.74872" lon="7.3326">
        <ele>376.7</ele>
        <time>2020-05-22T11:11:55Z</time>
      </trkpt>
      <trkpt lat="48.74871" lon="7.33264">
        <ele>376.5</ele>
        <time>2020-05-22T11:11:57Z</time>
      </trkpt>
      <trkpt lat="48.74871" lon="7.33266">
        <ele>376.4</ele>
        <time>2020-05-22T11:11:58Z</time>
      </trkpt>
      <trkpt lat="48.7487" lon="7.33268">
        <ele>376.3</ele>
        <time>2020-05-22T11:12:00Z</time>
      </trkpt>
      <trkpt lat="48.7487" lon="7.33269">
        <ele>376.2</ele>
        <time>2020-05-22T11:12:02Z</time>
      </trkpt>
      <trkpt lat="48.74868" lon="7.33269">
        <ele>376.1</ele>
        <time>2020-05-22T11:12:04Z</time>
      </trkpt>
      <trkpt lat="48.74862" lon="7.3327">
        <ele>375.6</ele>
        <time>2020-05-22T11:12:06Z</time>
      </trkpt>
      <trkpt lat="48.74859" lon="7.33271">
        <ele>375.4</ele>
        <time>2020-05-22T11:12:07Z</time>
      </trkpt>
      <trkpt lat="48.74857" lon="7.33272">
        <ele>375.2</ele>
        <time>2020-05-22T11:12:09Z</time>
      </trkpt>
      <trkpt lat="48.74856" lon="7.33272">
        <ele>375.2</ele>
        <time>2020-05-22T11:12:10Z</time>
      </trkpt>
      <trkpt lat="48.74856" lon="7.33274">
        <ele>375.1</ele>
        <time>2020-05-22T11:12:12Z</time>
      </trkpt>
      <trkpt lat="48.74856" lon="7.33277">
        <ele>375</ele>
        <time>2020-05-22T11:12:14Z</time>
      </trkpt>
      <trkpt lat="48.74855" lon="7.33279">
        <ele>375</ele>
        <time>2020-05-22T11:12:16Z</time>
      </trkpt>
      <trkpt lat="48.74853" lon="7.33283">
        <ele>374.9</ele>
        <time>2020-05-22T11:12:18Z</time>
      </trkpt>
      <trkpt lat="48.74851" lon="7.33285">
        <ele>374.9</ele>
        <time>2020-05-22T11:12:19Z</time>
      </trkpt>
      <trkpt lat="48.74849" lon="7.33289">
        <ele>374.8</ele>
        <time>2020-05-22T11:12:21Z</time>
      </trkpt>
      <trkpt lat="48.74848" lon="7.3329">
        <ele>374.9</ele>
        <time>2020-05-22T11:12:22Z</time>
      </trkpt>
      <trkpt lat="48.74846" lon="7.33291">
        <ele>374.9</ele>
        <time>2020-05-22T11:12:23Z</time>
      </trkpt>
      <trkpt lat="48.74843" lon="7.33291">
        <ele>374.9</ele>
        <time>2020-05-22T11:12:24Z</time>
      </trkpt>
      <trkpt lat="48.74842" lon="7.33292">
        <ele>374.9</ele>
        <time>2020-05-22T11:12:25Z</time>
      </trkpt>
      <trkpt lat="48.74836" lon="7.33294">
        <ele>375.2</ele>
        <time>2020-05-22T11:12:27Z</time>
      </trkpt>
      <trkpt lat="48.74828" lon="7.33295">
        <ele>375.5</ele>
        <time>2020-05-22T11:12:29Z</time>
      </trkpt>
      <trkpt lat="48.74826" lon="7.33295">
        <ele>375.6</ele>
        <time>2020-05-22T11:12:30Z</time>
      </trkpt>
      <trkpt lat="48.74821" lon="7.33298">
        <ele>375.8</ele>
        <time>2020-05-22T11:12:32Z</time>
      </trkpt>
      <trkpt lat="48.74816" lon="7.33302">
        <ele>376</ele>
        <time>2020-05-22T11:12:34Z</time>
      </trkpt>
      <trkpt lat="48.74812" lon="7.33305">
        <ele>376</ele>
        <time>2020-05-22T11:12:36Z</time>
      </trkpt>
      <trkpt lat="48.7481" lon="7.33306">
        <ele>376.1</ele>
        <time>2020-05-22T11:12:37Z</time>
      </trkpt>
      <trkpt lat="48.74807" lon="7.33308">
        <ele>376</ele>
        <time>2020-05-22T11:12:39Z</time>
      </trkpt>
      <trkpt lat="48.74805" lon="7.33308">
        <ele>376</ele>
        <time>2020-05-22T11:12:40Z</time>
      </trkpt>
      <trkpt lat="48.74801" lon="7.33311">
        <ele>375.9</ele>
        <time>2020-05-22T11:12:42Z</time>
      </trkpt>
      <trkpt lat="48.74796" lon="7.33314">
        <ele>375.6</ele>
        <time>2020-05-22T11:12:44Z</time>
      </trkpt>
      <trkpt lat="48.74792" lon="7.33317">
        <ele>375.5</ele>
        <time>2020-05-22T11:12:45Z</time>
      </trkpt>
      <trkpt lat="48.74791" lon="7.33318">
        <ele>375.4</ele>
        <time>2020-05-22T11:12:46Z</time>
      </trkpt>
      <trkpt lat="48.74787" lon="7.33322">
        <ele>375.2</ele>
        <time>2020-05-22T11:12:47Z</time>
      </trkpt>
      <trkpt lat="48.74781" lon="7.33327">
        <ele>374.9</ele>
        <time>2020-05-22T11:12:49Z</time>
      </trkpt>
      <trkpt lat="48.7478" lon="7.33328">
        <ele>374.9</ele>
        <time>2020-05-22T11:12:50Z</time>
      </trkpt>
      <trkpt lat="48.74778" lon="7.3333">
        <ele>374.8</ele>
        <time>2020-05-22T11:12:51Z</time>
      </trkpt>
      <trkpt lat="48.74775" lon="7.33331">
        <ele>374.8</ele>
        <time>2020-05-22T11:12:53Z</time>
      </trkpt>
      <trkpt lat="48.7477" lon="7.33332">
        <ele>374.7</ele>
        <time>2020-05-22T11:12:55Z</time>
      </trkpt>
      <trkpt lat="48.74767" lon="7.33333">
        <ele>374.7</ele>
        <time>2020-05-22T11:12:56Z</time>
      </trkpt>
      <trkpt lat="48.74765" lon="7.33334">
        <ele>374.7</ele>
        <time>2020-05-22T11:12:57Z</time>
      </trkpt>
      <trkpt lat="48.74761" lon="7.33335">
        <ele>374.8</ele>
        <time>2020-05-22T11:12:59Z</time>
      </trkpt>
      <trkpt lat="48.74756" lon="7.33335">
        <ele>374.9</ele>
        <time>2020-05-22T11:13:01Z</time>
      </trkpt>
      <trkpt lat="48.74754" lon="7.33336">
        <ele>374.9</ele>
        <time>2020-05-22T11:13:02Z</time>
      </trkpt>
      <trkpt lat="48.7475" lon="7.33338">
        <ele>375</ele>
        <time>2020-05-22T11:13:04Z</time>
      </trkpt>
      <trkpt lat="48.74748" lon="7.33339">
        <ele>375.1</ele>
        <time>2020-05-22T11:13:05Z</time>
      </trkpt>
      <trkpt lat="48.74745" lon="7.33341">
        <ele>375.1</ele>
        <time>2020-05-22T11:13:07Z</time>
      </trkpt>
      <trkpt lat="48.74743" lon="7.33342">
        <ele>375.1</ele>
        <time>2020-05-22T11:13:08Z</time>
      </trkpt>
      <trkpt lat="48.74735" lon="7.33347">
        <ele>374.8</ele>
        <time>2020-05-22T11:13:10Z</time>
      </trkpt>
      <trkpt lat="48.7473" lon="7.33351">
        <ele>374.6</ele>
        <time>2020-05-22T11:13:11Z</time>
      </trkpt>
      <trkpt lat="48.74721" lon="7.33356">
        <ele>374.2</ele>
        <time>2020-05-22T11:13:13Z</time>
      </trkpt>
      <trkpt lat="48.74717" lon="7.3336">
        <ele>374.2</ele>
        <time>2020-05-22T11:13:15Z</time>
      </trkpt>
      <trkpt lat="48.74711" lon="7.33368">
        <ele>374.3</ele>
        <time>2020-05-22T11:13:17Z</time>
      </trkpt>
      <trkpt lat="48.74709" lon="7.33369">
        <ele>374.4</ele>
        <time>2020-05-22T11:13:18Z</time>
      </trkpt>
      <trkpt lat="48.74709" lon="7.33371">
        <ele>374.4</ele>
        <time>2020-05-22T11:13:19Z</time>
      </trkpt>
      <trkpt lat="48.74705" lon="7.33372">
        <ele>374.6</ele>
        <time>2020-05-22T11:13:21Z</time>
      </trkpt>
      <trkpt lat="48.74702" lon="7.33374">
        <ele>374.9</ele>
        <time>2020-05-22T11:13:22Z</time>
      </trkpt>
      <trkpt lat="48.74698" lon="7.33375">
        <ele>375.1</ele>
        <time>2020-05-22T11:13:23Z</time>
      </trkpt>
      <trkpt lat="48.74698" lon="7.33375">
        <ele>375.1</ele>
        <time>2020-05-22T11:13:24Z</time>
      </trkpt>
      <trkpt lat="48.74696" lon="7.33376">
        <ele>375.3</ele>
        <time>2020-05-22T11:13:26Z</time>
      </trkpt>
      <trkpt lat="48.74695" lon="7.33377">
        <ele>375.3</ele>
        <time>2020-05-22T11:13:27Z</time>
      </trkpt>
      <trkpt lat="48.74695" lon="7.33378">
        <ele>375.4</ele>
        <time>2020-05-22T11:13:28Z</time>
      </trkpt>
      <trkpt lat="48.74693" lon="7.33379">
        <ele>375.5</ele>
        <time>2020-05-22T11:13:30Z</time>
      </trkpt>
      <trkpt lat="48.74692" lon="7.33379">
        <ele>375.5</ele>
        <time>2020-05-22T11:13:31Z</time>
      </trkpt>
      <trkpt lat="48.7469" lon="7.33378">
        <ele>375.6</ele>
        <time>2020-05-22T11:13:33Z</time>
      </trkpt>
      <trkpt lat="48.74689" lon="7.33379">
        <ele>375.7</ele>
        <time>2020-05-22T11:13:34Z</time>
      </trkpt>
      <trkpt lat="48.74688" lon="7.3338">
        <ele>375.7</ele>
        <time>2020-05-22T11:13:36Z</time>
      </trkpt>
      <trkpt lat="48.74688" lon="7.3338">
        <ele>375.7</ele>
        <time>2020-05-22T11:13:38Z</time>
      </trkpt>
      <trkpt lat="48.74688" lon="7.3338">
        <ele>375.7</ele>
        <time>2020-05-22T11:13:39Z</time>
      </trkpt>
      <trkpt lat="48.74686" lon="7.33381">
        <ele>375.8</ele>
        <time>2020-05-22T11:13:40Z</time>
      </trkpt>
      <trkpt lat="48.74682" lon="7.33382">
        <ele>375.9</ele>
        <time>2020-05-22T11:13:42Z</time>
      </trkpt>
      <trkpt lat="48.74674" lon="7.33384">
        <ele>376</ele>
        <time>2020-05-22T11:13:44Z</time>
      </trkpt>
      <trkpt lat="48.74668" lon="7.33385">
        <ele>375.9</ele>
        <time>2020-05-22T11:13:46Z</time>
      </trkpt>
      <trkpt lat="48.74664" lon="7.33387">
        <ele>375.8</ele>
        <time>2020-05-22T11:13:48Z</time>
      </trkpt>
      <trkpt lat="48.74662" lon="7.33389">
        <ele>375.8</ele>
        <time>2020-05-22T11:13:49Z</time>
      </trkpt>
      <trkpt lat="48.74659" lon="7.33392">
        <ele>375.6</ele>
        <time>2020-05-22T11:13:51Z</time>
      </trkpt>
      <trkpt lat="48.74657" lon="7.33393">
        <ele>375.6</ele>
        <time>2020-05-22T11:13:52Z</time>
      </trkpt>
      <trkpt lat="48.74652" lon="7.33395">
        <ele>375.4</ele>
        <time>2020-05-22T11:13:54Z</time>
      </trkpt>
      <trkpt lat="48.74648" lon="7.33397">
        <ele>375.3</ele>
        <time>2020-05-22T11:13:55Z</time>
      </trkpt>
      <trkpt lat="48.74644" lon="7.33399">
        <ele>375.3</ele>
        <time>2020-05-22T11:13:57Z</time>
      </trkpt>
      <trkpt lat="48.74642" lon="7.334">
        <ele>375.3</ele>
        <time>2020-05-22T11:13:58Z</time>
      </trkpt>
      <trkpt lat="48.74638" lon="7.33404">
        <ele>375.4</ele>
        <time>2020-05-22T11:14:00Z</time>
      </trkpt>
      <trkpt lat="48.74636" lon="7.33406">
        <ele>375.5</ele>
        <time>2020-05-22T11:14:01Z</time>
      </trkpt>
      <trkpt lat="48.74631" lon="7.33411">
        <ele>375.6</ele>
        <time>2020-05-22T11:14:03Z</time>
      </trkpt>
      <trkpt lat="48.7463" lon="7.33413">
        <ele>375.7</ele>
        <time>2020-05-22T11:14:04Z</time>
      </trkpt>
      <trkpt lat="48.74628" lon="7.33415">
        <ele>375.7</ele>
        <time>2020-05-22T11:14:06Z</time>
      </trkpt>
      <trkpt lat="48.74627" lon="7.33416">
        <ele>375.7</ele>
        <time>2020-05-22T11:14:08Z</time>
      </trkpt>
      <trkpt lat="48.74625" lon="7.33417">
        <ele>375.7</ele>
        <time>2020-05-22T11:14:10Z</time>
      </trkpt>
      <trkpt lat="48.74624" lon="7.33419">
        <ele>375.7</ele>
        <time>2020-05-22T11:14:11Z</time>
      </trkpt>
      <trkpt lat="48.74618" lon="7.33425">
        <ele>375.5</ele>
        <time>2020-05-22T11:14:13Z</time>
      </trkpt>
      <trkpt lat="48.74614" lon="7.33428">
        <ele>375.1</ele>
        <time>2020-05-22T11:14:14Z</time>
      </trkpt>
      <trkpt lat="48.74611" lon="7.33432">
        <ele>374.7</ele>
        <time>2020-05-22T11:14:15Z</time>
      </trkpt>
      <trkpt lat="48.74607" lon="7.33437">
        <ele>374</ele>
        <time>2020-05-22T11:14:16Z</time>
      </trkpt>
      <trkpt lat="48.74603" lon="7.33443">
        <ele>372.8</ele>
        <time>2020-05-22T11:14:18Z</time>
      </trkpt>
      <trkpt lat="48.74601" lon="7.33447">
        <ele>372.2</ele>
        <time>2020-05-22T11:14:19Z</time>
      </trkpt>
      <trkpt lat="48.74595" lon="7.33456">
        <ele>370.9</ele>
        <time>2020-05-22T11:14:21Z</time>
      </trkpt>
      <trkpt lat="48.74593" lon="7.33462">
        <ele>370.3</ele>
        <time>2020-05-22T11:14:23Z</time>
      </trkpt>
      <trkpt lat="48.74592" lon="7.33466">
        <ele>369.9</ele>
        <time>2020-05-22T11:14:24Z</time>
      </trkpt>
      <trkpt lat="48.74589" lon="7.33474">
        <ele>369</ele>
        <time>2020-05-22T11:14:26Z</time>
      </trkpt>
      <trkpt lat="48.74587" lon="7.33477">
        <ele>368.6</ele>
        <time>2020-05-22T11:14:27Z</time>
      </trkpt>
      <trkpt lat="48.74586" lon="7.33479">
        <ele>368.4</ele>
        <time>2020-05-22T11:14:28Z</time>
      </trkpt>
      <trkpt lat="48.74585" lon="7.33481">
        <ele>368.2</ele>
        <time>2020-05-22T11:14:29Z</time>
      </trkpt>
      <trkpt lat="48.74585" lon="7.33485">
        <ele>367.9</ele>
        <time>2020-05-22T11:14:31Z</time>
      </trkpt>
      <trkpt lat="48.74586" lon="7.33489">
        <ele>367.6</ele>
        <time>2020-05-22T11:14:33Z</time>
      </trkpt>
      <trkpt lat="48.74584" lon="7.33498">
        <ele>367</ele>
        <time>2020-05-22T11:14:35Z</time>
      </trkpt>
      <trkpt lat="48.74583" lon="7.33504">
        <ele>366.6</ele>
        <time>2020-05-22T11:14:37Z</time>
      </trkpt>
      <trkpt lat="48.74581" lon="7.33514">
        <ele>365.8</ele>
        <time>2020-05-22T11:14:39Z</time>
      </trkpt>
      <trkpt lat="48.74575" lon="7.33525">
        <ele>364.6</ele>
        <time>2020-05-22T11:14:41Z</time>
      </trkpt>
      <trkpt lat="48.74571" lon="7.33529">
        <ele>364</ele>
        <time>2020-05-22T11:14:42Z</time>
      </trkpt>
      <trkpt lat="48.74566" lon="7.33536">
        <ele>363</ele>
        <time>2020-05-22T11:14:44Z</time>
      </trkpt>
      <trkpt lat="48.7456" lon="7.33547">
        <ele>361.7</ele>
        <time>2020-05-22T11:14:46Z</time>
      </trkpt>
      <trkpt lat="48.74558" lon="7.33557">
        <ele>360.5</ele>
        <time>2020-05-22T11:14:48Z</time>
      </trkpt>
      <trkpt lat="48.74555" lon="7.33565">
        <ele>359.5</ele>
        <time>2020-05-22T11:14:50Z</time>
      </trkpt>
      <trkpt lat="48.74553" lon="7.33568">
        <ele>358.9</ele>
        <time>2020-05-22T11:14:51Z</time>
      </trkpt>
      <trkpt lat="48.74549" lon="7.33574">
        <ele>357.9</ele>
        <time>2020-05-22T11:14:53Z</time>
      </trkpt>
      <trkpt lat="48.74548" lon="7.33577">
        <ele>357.4</ele>
        <time>2020-05-22T11:14:54Z</time>
      </trkpt>
      <trkpt lat="48.74546" lon="7.3358">
        <ele>356.9</ele>
        <time>2020-05-22T11:14:55Z</time>
      </trkpt>
      <trkpt lat="48.74539" lon="7.33592">
        <ele>354.9</ele>
        <time>2020-05-22T11:14:57Z</time>
      </trkpt>
      <trkpt lat="48.74537" lon="7.33598">
        <ele>354.1</ele>
        <time>2020-05-22T11:14:58Z</time>
      </trkpt>
      <trkpt lat="48.74535" lon="7.33602">
        <ele>353.6</ele>
        <time>2020-05-22T11:14:59Z</time>
      </trkpt>
      <trkpt lat="48.74534" lon="7.33608">
        <ele>353</ele>
        <time>2020-05-22T11:15:01Z</time>
      </trkpt>
      <trkpt lat="48.74531" lon="7.33619">
        <ele>352.1</ele>
        <time>2020-05-22T11:15:03Z</time>
      </trkpt>
      <trkpt lat="48.74529" lon="7.33627">
        <ele>351.7</ele>
        <time>2020-05-22T11:15:04Z</time>
      </trkpt>
      <trkpt lat="48.74527" lon="7.33637">
        <ele>351.2</ele>
        <time>2020-05-22T11:15:05Z</time>
      </trkpt>
      <trkpt lat="48.74525" lon="7.33651">
        <ele>350.6</ele>
        <time>2020-05-22T11:15:07Z</time>
      </trkpt>
      <trkpt lat="48.74524" lon="7.33657">
        <ele>350.3</ele>
        <time>2020-05-22T11:15:08Z</time>
      </trkpt>
      <trkpt lat="48.74521" lon="7.33664">
        <ele>349.8</ele>
        <time>2020-05-22T11:15:10Z</time>
      </trkpt>
      <trkpt lat="48.74519" lon="7.33666">
        <ele>349.7</ele>
        <time>2020-05-22T11:15:11Z</time>
      </trkpt>
      <trkpt lat="48.74518" lon="7.33677">
        <ele>349</ele>
        <time>2020-05-22T11:15:13Z</time>
      </trkpt>
      <trkpt lat="48.74517" lon="7.33684">
        <ele>348.6</ele>
        <time>2020-05-22T11:15:15Z</time>
      </trkpt>
      <trkpt lat="48.74518" lon="7.33686">
        <ele>348.4</ele>
        <time>2020-05-22T11:15:16Z</time>
      </trkpt>
      <trkpt lat="48.74518" lon="7.33688">
        <ele>348.3</ele>
        <time>2020-05-22T11:15:17Z</time>
      </trkpt>
      <trkpt lat="48.74519" lon="7.33691">
        <ele>348.1</ele>
        <time>2020-05-22T11:15:18Z</time>
      </trkpt>
      <trkpt lat="48.74519" lon="7.33693">
        <ele>348</ele>
        <time>2020-05-22T11:15:19Z</time>
      </trkpt>
      <trkpt lat="48.74519" lon="7.33694">
        <ele>347.9</ele>
        <time>2020-05-22T11:15:20Z</time>
      </trkpt>
      <trkpt lat="48.7452" lon="7.33699">
        <ele>347.6</ele>
        <time>2020-05-22T11:15:22Z</time>
      </trkpt>
      <trkpt lat="48.74521" lon="7.337">
        <ele>347.5</ele>
        <time>2020-05-22T11:15:23Z</time>
      </trkpt>
      <trkpt lat="48.7452" lon="7.33703">
        <ele>347.3</ele>
        <time>2020-05-22T11:15:25Z</time>
      </trkpt>
      <trkpt lat="48.74519" lon="7.33705">
        <ele>347.2</ele>
        <time>2020-05-22T11:15:27Z</time>
      </trkpt>
      <trkpt lat="48.74519" lon="7.33708">
        <ele>347</ele>
        <time>2020-05-22T11:15:29Z</time>
      </trkpt>
      <trkpt lat="48.74519" lon="7.33709">
        <ele>346.9</ele>
        <time>2020-05-22T11:15:30Z</time>
      </trkpt>
      <trkpt lat="48.74518" lon="7.33715">
        <ele>346.6</ele>
        <time>2020-05-22T11:15:32Z</time>
      </trkpt>
      <trkpt lat="48.74515" lon="7.33718">
        <ele>346.3</ele>
        <time>2020-05-22T11:15:34Z</time>
      </trkpt>
      <trkpt lat="48.74513" lon="7.3372">
        <ele>346.2</ele>
        <time>2020-05-22T11:15:35Z</time>
      </trkpt>
      <trkpt lat="48.74508" lon="7.33727">
        <ele>345.8</ele>
        <time>2020-05-22T11:15:37Z</time>
      </trkpt>
      <trkpt lat="48.74503" lon="7.33733">
        <ele>345.6</ele>
        <time>2020-05-22T11:15:39Z</time>
      </trkpt>
      <trkpt lat="48.74502" lon="7.33735">
        <ele>345.6</ele>
        <time>2020-05-22T11:15:40Z</time>
      </trkpt>
      <trkpt lat="48.74502" lon="7.33737">
        <ele>345.6</ele>
        <time>2020-05-22T11:15:41Z</time>
      </trkpt>
      <trkpt lat="48.74501" lon="7.33739">
        <ele>345.6</ele>
        <time>2020-05-22T11:15:43Z</time>
      </trkpt>
      <trkpt lat="48.745" lon="7.33741">
        <ele>345.6</ele>
        <time>2020-05-22T11:15:44Z</time>
      </trkpt>
      <trkpt lat="48.745" lon="7.33743">
        <ele>345.6</ele>
        <time>2020-05-22T11:15:45Z</time>
      </trkpt>
      <trkpt lat="48.74498" lon="7.33745">
        <ele>345.6</ele>
        <time>2020-05-22T11:15:47Z</time>
      </trkpt>
      <trkpt lat="48.74497" lon="7.33747">
        <ele>345.6</ele>
        <time>2020-05-22T11:15:49Z</time>
      </trkpt>
      <trkpt lat="48.74496" lon="7.33749">
        <ele>345.6</ele>
        <time>2020-05-22T11:15:50Z</time>
      </trkpt>
      <trkpt lat="48.74496" lon="7.33751">
        <ele>345.6</ele>
        <time>2020-05-22T11:15:52Z</time>
      </trkpt>
      <trkpt lat="48.74496" lon="7.33752">
        <ele>345.6</ele>
        <time>2020-05-22T11:15:53Z</time>
      </trkpt>
      <trkpt lat="48.74496" lon="7.33755">
        <ele>345.5</ele>
        <time>2020-05-22T11:15:55Z</time>
      </trkpt>
      <trkpt lat="48.74497" lon="7.33756">
        <ele>345.5</ele>
        <time>2020-05-22T11:15:56Z</time>
      </trkpt>
      <trkpt lat="48.74497" lon="7.33758">
        <ele>345.5</ele>
        <time>2020-05-22T11:15:58Z</time>
      </trkpt>
      <trkpt lat="48.74497" lon="7.33758">
        <ele>345.5</ele>
        <time>2020-05-22T11:15:59Z</time>
      </trkpt>
      <trkpt lat="48.74496" lon="7.33759">
        <ele>345.5</ele>
        <time>2020-05-22T11:16:00Z</time>
      </trkpt>
      <trkpt lat="48.74495" lon="7.3376">
        <ele>345.5</ele>
        <time>2020-05-22T11:16:01Z</time>
      </trkpt>
      <trkpt lat="48.74494" lon="7.33765">
        <ele>345.4</ele>
        <time>2020-05-22T11:16:03Z</time>
      </trkpt>
      <trkpt lat="48.74492" lon="7.33768">
        <ele>345.4</ele>
        <time>2020-05-22T11:16:04Z</time>
      </trkpt>
      <trkpt lat="48.74487" lon="7.33774">
        <ele>345.2</ele>
        <time>2020-05-22T11:16:06Z</time>
      </trkpt>
      <trkpt lat="48.74485" lon="7.33778">
        <ele>345.2</ele>
        <time>2020-05-22T11:16:07Z</time>
      </trkpt>
      <trkpt lat="48.74485" lon="7.33779">
        <ele>345.1</ele>
        <time>2020-05-22T11:16:08Z</time>
      </trkpt>
      <trkpt lat="48.74483" lon="7.33782">
        <ele>345.1</ele>
        <time>2020-05-22T11:16:09Z</time>
      </trkpt>
      <trkpt lat="48.74482" lon="7.33785">
        <ele>345</ele>
        <time>2020-05-22T11:16:11Z</time>
      </trkpt>
      <trkpt lat="48.74482" lon="7.33786">
        <ele>345</ele>
        <time>2020-05-22T11:16:12Z</time>
      </trkpt>
      <trkpt lat="48.74482" lon="7.33787">
        <ele>345</ele>
        <time>2020-05-22T11:16:13Z</time>
      </trkpt>
      <trkpt lat="48.74482" lon="7.33788">
        <ele>345</ele>
        <time>2020-05-22T11:16:14Z</time>
      </trkpt>
      <trkpt lat="48.74481" lon="7.33791">
        <ele>345</ele>
        <time>2020-05-22T11:16:16Z</time>
      </trkpt>
      <trkpt lat="48.7448" lon="7.33794">
        <ele>344.9</ele>
        <time>2020-05-22T11:16:18Z</time>
      </trkpt>
      <trkpt lat="48.74479" lon="7.33795">
        <ele>344.9</ele>
        <time>2020-05-22T11:16:19Z</time>
      </trkpt>
      <trkpt lat="48.74478" lon="7.33799">
        <ele>344.9</ele>
        <time>2020-05-22T11:16:21Z</time>
      </trkpt>
      <trkpt lat="48.74478" lon="7.33801">
        <ele>344.8</ele>
        <time>2020-05-22T11:16:22Z</time>
      </trkpt>
      <trkpt lat="48.74478" lon="7.33802">
        <ele>344.8</ele>
        <time>2020-05-22T11:16:24Z</time>
      </trkpt>
      <trkpt lat="48.74478" lon="7.33803">
        <ele>344.7</ele>
        <time>2020-05-22T11:16:25Z</time>
      </trkpt>
      <trkpt lat="48.74476" lon="7.33807">
        <ele>344.6</ele>
        <time>2020-05-22T11:16:27Z</time>
      </trkpt>
      <trkpt lat="48.74474" lon="7.33809">
        <ele>344.4</ele>
        <time>2020-05-22T11:16:28Z</time>
      </trkpt>
      <trkpt lat="48.7447" lon="7.33815">
        <ele>344.2</ele>
        <time>2020-05-22T11:16:30Z</time>
      </trkpt>
      <trkpt lat="48.74469" lon="7.33818">
        <ele>344</ele>
        <time>2020-05-22T11:16:31Z</time>
      </trkpt>
      <trkpt lat="48.74464" lon="7.33824">
        <ele>343.7</ele>
        <time>2020-05-22T11:16:33Z</time>
      </trkpt>
      <trkpt lat="48.74461" lon="7.33825">
        <ele>343.5</ele>
        <time>2020-05-22T11:16:34Z</time>
      </trkpt>
      <trkpt lat="48.74456" lon="7.33831">
        <ele>343</ele>
        <time>2020-05-22T11:16:36Z</time>
      </trkpt>
      <trkpt lat="48.74454" lon="7.33835">
        <ele>342.7</ele>
        <time>2020-05-22T11:16:37Z</time>
      </trkpt>
      <trkpt lat="48.74452" lon="7.33841">
        <ele>342.1</ele>
        <time>2020-05-22T11:16:39Z</time>
      </trkpt>
      <trkpt lat="48.7445" lon="7.33846">
        <ele>341.7</ele>
        <time>2020-05-22T11:16:40Z</time>
      </trkpt>
      <trkpt lat="48.7445" lon="7.33847">
        <ele>341.6</ele>
        <time>2020-05-22T11:16:41Z</time>
      </trkpt>
      <trkpt lat="48.74448" lon="7.33861">
        <ele>340.4</ele>
        <time>2020-05-22T11:16:43Z</time>
      </trkpt>
      <trkpt lat="48.7444" lon="7.33883">
        <ele>338.4</ele>
        <time>2020-05-22T11:16:45Z</time>
      </trkpt>
      <trkpt lat="48.74436" lon="7.33891">
        <ele>337.5</ele>
        <time>2020-05-22T11:16:46Z</time>
      </trkpt>
      <trkpt lat="48.74429" lon="7.33902">
        <ele>336.4</ele>
        <time>2020-05-22T11:16:48Z</time>
      </trkpt>
      <trkpt lat="48.7443" lon="7.33907">
        <ele>336</ele>
        <time>2020-05-22T11:16:49Z</time>
      </trkpt>
      <trkpt lat="48.74429" lon="7.33915">
        <ele>335.5</ele>
        <time>2020-05-22T11:16:50Z</time>
      </trkpt>
      <trkpt lat="48.74426" lon="7.33935">
        <ele>334.6</ele>
        <time>2020-05-22T11:16:52Z</time>
      </trkpt>
      <trkpt lat="48.74424" lon="7.3396">
        <ele>333.6</ele>
        <time>2020-05-22T11:16:54Z</time>
      </trkpt>
      <trkpt lat="48.74423" lon="7.33987">
        <ele>332.5</ele>
        <time>2020-05-22T11:16:56Z</time>
      </trkpt>
      <trkpt lat="48.74422" lon="7.34016">
        <ele>331.6</ele>
        <time>2020-05-22T11:16:58Z</time>
      </trkpt>
      <trkpt lat="48.74419" lon="7.3403">
        <ele>331.1</ele>
        <time>2020-05-22T11:16:59Z</time>
      </trkpt>
      <trkpt lat="48.74414" lon="7.34057">
        <ele>329.9</ele>
        <time>2020-05-22T11:17:01Z</time>
      </trkpt>
      <trkpt lat="48.74409" lon="7.34076">
        <ele>328.8</ele>
        <time>2020-05-22T11:17:03Z</time>
      </trkpt>
      <trkpt lat="48.74407" lon="7.34078">
        <ele>328.7</ele>
        <time>2020-05-22T11:17:05Z</time>
      </trkpt>
      <trkpt lat="48.74407" lon="7.34077">
        <ele>328.7</ele>
        <time>2020-05-22T11:17:06Z</time>
      </trkpt>
      <trkpt lat="48.74407" lon="7.34079">
        <ele>328.6</ele>
        <time>2020-05-22T11:17:07Z</time>
      </trkpt>
      <trkpt lat="48.74407" lon="7.3408">
        <ele>328.5</ele>
        <time>2020-05-22T11:17:08Z</time>
      </trkpt>
      <trkpt lat="48.74407" lon="7.34082">
        <ele>328.5</ele>
        <time>2020-05-22T11:17:10Z</time>
      </trkpt>
    </trkseg>
  </trk>
</gpx>